Kimball, MN (55353)

3:58 PM CDT on August 21, 2014 (GMT -0500)
North of Kimball | Change Station
CLOSE
Current Station
Personal Weather Station
Location: Kimball, MN
Elevation: 1260 ft
Nearby Weather Stations

Elev 1260 ft 45.35 °N, 94.34 °W | Updated 6 seconds ago

Overcast
Overcast
76.3 °F
Feels Like 77 °F
N
3.0
Wind Variable Wind from ESE
Gusts 7.0 mph

Today
High -- | Low -- °F
--% Chance of Precip.
Yesterday
High -- | Low -- °F
Precip. -- in
6:25 AM 8:14 PM
Waning Crescent, 12% visible
Pressure 29.81 in
Visibility 10.0 miles
Clouds Overcast 1900 ft
Heat Index 77 °F
Dew Point 72 °F
Humidity 86%
Rainfall 1.90 in
Snow Depth Not available.
UV 2 out of 12
Pollen 3.90 out of 12
Air Quality Not available.
Flu Activity Not available.
METAR KMGG 212055Z AUTO 06006KT 10SM OVC019 25/23 A2981 RMK AO2 T02470227

More Conditions Fewer Conditions

Pressure 29.81 in
Visibility 10.0 miles
Clouds Overcast 1900 ft
Heat Index 77 °F
Dew Point 72 °F
Humidity 86%
Rainfall 1.90 in
Snow Depth Not available.
UV 2 out of 12
Pollen 3.90 out of 12
Air Quality Not available.
Flu Activity Not available.
METAR KMGG 212055Z AUTO 06006KT 10SM OVC019 25/23 A2981 RMK AO2 T02470227

More Conditions Fewer Conditions

10-Day Weather Forecast

Almanac

Astronomy

Aug. 21, 2014 Rise Set
Actual Time 6:25 AM CDT 8:14 PM CDT
Civil Twilight 5:53 AM CDT 8:45 PM CDT
Nautical Twilight 5:15 AM CDT 9:24 PM CDT
Astronomical Twilight 4:33 AM CDT 10:05 PM CDT
Moon 2:51 AM CDT 5:47 PM CDT
Length of Visible Light 14h 51m
Length of Day
13h 48m
Tomorrow will be 2m 56s shorter.
Waning Crescent, 12% of the Moon is Illuminated
Today
Waning Crescent
Aug 25
New
Sep 2
First Quarter
Sep 8
Full
Sep 15
Last Quarter

Today's Extremes

State Highs State Lows

Community

WunderPhotos

Upload Photos

1,746,017 photos uploaded!

WunderBlogs® & News

Nearby

Snow Depth

Station Depth Elevation
No new snow has been reported.

Earthquake Activity

City Distance Mag. Time & Date
No recent earthquake activity has been reported nearby.
Minimum magnitude displayed is 2.5.

Coastal Water Temperatures

Place Temperature
No Stations Reporting

Nearby Weather Stations